sensor_id;sensor_type;location;lat;lon;timestamp;P1;durP1;ratioP1;P2;durP2;ratioP2
71174;SDS011;58876;51.994;4.472;2022-09-09T00:04:05;3668.45;;;3664.40;;
71174;SDS011;58876;51.994;4.472;2022-09-09T00:06:43;3763.33;;;3761.88;;
71174;SDS011;58876;51.994;4.472;2022-09-09T00:09:19;3121.06;;;3121.06;;
71174;SDS011;58876;51.994;4.472;2022-09-09T00:12:00;3681.86;;;3681.86;;
71174;SDS011;58876;51.994;4.472;2022-09-09T00:17:53;4093.74;;;4072.44;;
71174;SDS011;58876;51.994;4.472;2022-09-09T00:20:32;4056.02;;;4040.12;;
71174;SDS011;58876;51.994;4.472;2022-09-09T00:26:34;3289.67;;;3289.67;;
71174;SDS011;58876;51.994;4.472;2022-09-09T00:29:23;3505.06;;;3503.08;;
71174;SDS011;58876;51.994;4.472;2022-09-09T00:38:47;3401.50;;;3401.35;;
71174;SDS011;58876;51.994;4.472;2022-09-09T00:43:46;3666.78;;;3666.78;;
71174;SDS011;58876;51.994;4.472;2022-09-09T00:49:14;4300.77;;;4272.97;;
71174;SDS011;58876;51.994;4.472;2022-09-09T00:54:40;3406.64;;;3405.91;;
71174;SDS011;58876;51.994;4.472;2022-09-09T00:57:33;3717.57;;;3717.57;;
71174;SDS011;58876;51.994;4.472;2022-09-09T01:11:20;2999.99;;;2999.99;;
71174;SDS011;58876;51.994;4.472;2022-09-09T01:16:46;2949.33;;;2949.33;;
71174;SDS011;58876;51.994;4.472;2022-09-09T01:19:15;2897.27;;;2897.27;;
71174;SDS011;58876;51.994;4.472;2022-09-09T01:27:52;2666.46;;;2666.46;;
71174;SDS011;58876;51.994;4.472;2022-09-09T01:30:22;2529.86;;;2529.86;;
71174;SDS011;58876;51.994;4.472;2022-09-09T01:32:50;2340.71;;;2340.71;;
71174;SDS011;58876;51.994;4.472;2022-09-09T01:35:37;2454.74;;;2454.74;;
71174;SDS011;58876;51.994;4.472;2022-09-09T01:38:12;2514.20;;;2514.20;;
71174;SDS011;58876;51.994;4.472;2022-09-09T01:40:40;2483.99;;;2483.99;;
71174;SDS011;58876;51.994;4.472;2022-09-09T01:43:07;2521.84;;;2521.84;;
71174;SDS011;58876;51.994;4.472;2022-09-09T01:45:33;2671.52;;;2671.52;;
71174;SDS011;58876;51.994;4.472;2022-09-09T01:47:59;2780.28;;;2780.28;;
71174;SDS011;58876;51.994;4.472;2022-09-09T01:50:25;2740.23;;;2740.23;;
71174;SDS011;58876;51.994;4.472;2022-09-09T01:52:53;2745.86;;;2745.86;;
71174;SDS011;58876;51.994;4.472;2022-09-09T02:00:56;2630.52;;;2630.52;;
71174;SDS011;58876;51.994;4.472;2022-09-09T02:03:44;2871.85;;;2871.85;;
71174;SDS011;58876;51.994;4.472;2022-09-09T02:09:07;2918.54;;;2918.54;;
71174;SDS011;58876;51.994;4.472;2022-09-09T02:11:37;2952.65;;;2952.65;;
71174;SDS011;58876;51.994;4.472;2022-09-09T02:14:10;2969.93;;;2969.93;;
71174;SDS011;58876;51.994;4.472;2022-09-09T02:16:44;2941.95;;;2941.95;;
71174;SDS011;58876;51.994;4.472;2022-09-09T02:19:33;2246.49;;;2246.49;;
71174;SDS011;58876;51.994;4.472;2022-09-09T02:22:04;2631.16;;;2631.16;;
71174;SDS011;58876;51.994;4.472;2022-09-09T02:24:31;2834.55;;;2834.55;;
71174;SDS011;58876;51.994;4.472;2022-09-09T02:27:01;2878.24;;;2878.24;;
71174;SDS011;58876;51.994;4.472;2022-09-09T02:29:33;2901.05;;;2901.05;;
71174;SDS011;58876;51.994;4.472;2022-09-09T02:32:07;2970.60;;;2970.60;;
71174;SDS011;58876;51.994;4.472;2022-09-09T02:34:40;2874.48;;;2874.48;;
71174;SDS011;58876;51.994;4.472;2022-09-09T02:37:10;2916.28;;;2916.28;;
71174;SDS011;58876;51.994;4.472;2022-09-09T02:39:40;3138.59;;;3138.59;;
71174;SDS011;58876;51.994;4.472;2022-09-09T02:42:05;2983.98;;;2983.98;;
71174;SDS011;58876;51.994;4.472;2022-09-09T02:44:32;3041.12;;;3041.12;;
71174;SDS011;58876;51.994;4.472;2022-09-09T02:47:09;3228.63;;;3228.63;;
71174;SDS011;58876;51.994;4.472;2022-09-09T02:55:46;2875.33;;;2875.33;;
71174;SDS011;58876;51.994;4.472;2022-09-09T02:58:17;2910.94;;;2910.94;;
71174;SDS011;58876;51.994;4.472;2022-09-09T03:00:45;3183.58;;;3183.58;;
71174;SDS011;58876;51.994;4.472;2022-09-09T03:03:13;3209.70;;;3209.70;;
71174;SDS011;58876;51.994;4.472;2022-09-09T03:05:41;3175.07;;;3175.07;;
71174;SDS011;58876;51.994;4.472;2022-09-09T03:08:07;3089.79;;;3089.79;;
71174;SDS011;58876;51.994;4.472;2022-09-09T03:10:33;3021.53;;;3021.53;;
71174;SDS011;58876;51.994;4.472;2022-09-09T03:13:00;3198.01;;;3198.01;;
71174;SDS011;58876;51.994;4.472;2022-09-09T03:15:26;3238.47;;;3238.47;;
71174;SDS011;58876;51.994;4.472;2022-09-09T03:17:55;3160.58;;;3160.58;;
71174;SDS011;58876;51.994;4.472;2022-09-09T03:20:22;3019.66;;;3019.66;;
71174;SDS011;58876;51.994;4.472;2022-09-09T03:22:51;3259.18;;;3259.18;;
71174;SDS011;58876;51.994;4.472;2022-09-09T03:25:17;3184.11;;;3184.11;;
71174;SDS011;58876;51.994;4.472;2022-09-09T03:27:43;3006.95;;;3006.95;;
71174;SDS011;58876;51.994;4.472;2022-09-09T03:30:08;3194.12;;;3194.12;;
71174;SDS011;58876;51.994;4.472;2022-09-09T03:32:35;3213.88;;;3213.88;;
71174;SDS011;58876;51.994;4.472;2022-09-09T03:35:01;3231.70;;;3231.70;;
71174;SDS011;58876;51.994;4.472;2022-09-09T03:37:26;3410.91;;;3410.91;;
71174;SDS011;58876;51.994;4.472;2022-09-09T03:39:52;3203.90;;;3203.90;;
71174;SDS011;58876;51.994;4.472;2022-09-09T03:42:19;3472.74;;;3472.74;;
71174;SDS011;58876;51.994;4.472;2022-09-09T03:44:46;3119.33;;;3119.33;;
71174;SDS011;58876;51.994;4.472;2022-09-09T03:47:18;3100.17;;;3100.17;;
71174;SDS011;58876;51.994;4.472;2022-09-09T03:49:46;3389.77;;;3389.77;;
71174;SDS011;58876;51.994;4.472;2022-09-09T03:52:16;3296.75;;;3296.75;;
71174;SDS011;58876;51.994;4.472;2022-09-09T03:54:41;3125.41;;;3125.41;;
71174;SDS011;58876;51.994;4.472;2022-09-09T03:57:08;3081.70;;;3081.70;;
71174;SDS011;58876;51.994;4.472;2022-09-09T03:59:35;3213.11;;;3213.11;;
71174;SDS011;58876;51.994;4.472;2022-09-09T04:02:04;3194.69;;;3194.69;;
71174;SDS011;58876;51.994;4.472;2022-09-09T04:04:29;2917.59;;;2917.59;;
71174;SDS011;58876;51.994;4.472;2022-09-09T04:06:55;3450.23;;;3450.23;;
71174;SDS011;58876;51.994;4.472;2022-09-09T04:09:20;3689.15;;;3689.15;;
71174;SDS011;58876;51.994;4.472;2022-09-09T04:11:56;3481.14;;;3481.14;;
71174;SDS011;58876;51.994;4.472;2022-09-09T04:14:22;3254.23;;;3254.23;;
71174;SDS011;58876;51.994;4.472;2022-09-09T04:16:47;3199.25;;;3199.25;;
71174;SDS011;58876;51.994;4.472;2022-09-09T04:19:13;3156.96;;;3156.96;;
71174;SDS011;58876;51.994;4.472;2022-09-09T04:24:07;3139.86;;;3139.86;;
71174;SDS011;58876;51.994;4.472;2022-09-09T04:26:34;3222.59;;;3222.59;;
71174;SDS011;58876;51.994;4.472;2022-09-09T04:29:02;3151.16;;;3151.16;;
71174;SDS011;58876;51.994;4.472;2022-09-09T04:31:28;3374.11;;;3374.11;;
71174;SDS011;58876;51.994;4.472;2022-09-09T04:34:09;3595.90;;;3595.90;;
71174;SDS011;58876;51.994;4.472;2022-09-09T04:36:34;3720.05;;;3720.05;;
71174;SDS011;58876;51.994;4.472;2022-09-09T04:39:00;3585.73;;;3585.73;;
71174;SDS011;58876;51.994;4.472;2022-09-09T04:41:26;3690.13;;;3690.13;;
71174;SDS011;58876;51.994;4.472;2022-09-09T04:43:53;3359.49;;;3359.49;;
71174;SDS011;58876;51.994;4.472;2022-09-09T04:46:19;3319.39;;;3319.39;;
71174;SDS011;58876;51.994;4.472;2022-09-09T04:48:46;3194.33;;;3194.33;;
71174;SDS011;58876;51.994;4.472;2022-09-09T04:51:12;3075.05;;;3075.05;;
71174;SDS011;58876;51.994;4.472;2022-09-09T04:53:41;3153.28;;;3153.28;;
71174;SDS011;58876;51.994;4.472;2022-09-09T04:56:07;3087.10;;;3087.10;;
71174;SDS011;58876;51.994;4.472;2022-09-09T04:58:38;3115.47;;;3115.47;;
71174;SDS011;58876;51.994;4.472;2022-09-09T05:01:12;3343.98;;;3343.98;;
71174;SDS011;58876;51.994;4.472;2022-09-09T05:03:44;3677.40;;;3677.40;;
71174;SDS011;58876;51.994;4.472;2022-09-09T05:06:14;3652.64;;;3652.64;;
71174;SDS011;58876;51.994;4.472;2022-09-09T05:08:41;3435.08;;;3435.08;;
71174;SDS011;58876;51.994;4.472;2022-09-09T05:11:24;3397.03;;;3397.03;;
71174;SDS011;58876;51.994;4.472;2022-09-09T05:17:01;3613.79;;;3613.79;;
71174;SDS011;58876;51.994;4.472;2022-09-09T05:19:26;3756.28;;;3755.30;;
71174;SDS011;58876;51.994;4.472;2022-09-09T05:21:54;3457.30;;;3457.30;;
71174;SDS011;58876;51.994;4.472;2022-09-09T05:24:19;3681.32;;;3667.40;;
71174;SDS011;58876;51.994;4.472;2022-09-09T05:26:45;3710.91;;;3710.85;;
71174;SDS011;58876;51.994;4.472;2022-09-09T05:29:10;3486.23;;;3486.23;;
71174;SDS011;58876;51.994;4.472;2022-09-09T05:31:36;3424.53;;;3424.53;;
71174;SDS011;58876;51.994;4.472;2022-09-09T05:34:01;3156.97;;;3156.97;;
71174;SDS011;58876;51.994;4.472;2022-09-09T05:36:27;3043.02;;;3043.02;;
71174;SDS011;58876;51.994;4.472;2022-09-09T05:38:53;3153.61;;;3153.61;;
71174;SDS011;58876;51.994;4.472;2022-09-09T05:41:21;3022.38;;;3022.38;;
71174;SDS011;58876;51.994;4.472;2022-09-09T05:43:55;3015.50;;;3015.50;;
71174;SDS011;58876;51.994;4.472;2022-09-09T05:46:21;3041.15;;;3041.15;;
71174;SDS011;58876;51.994;4.472;2022-09-09T05:48:50;3096.56;;;3096.56;;
71174;SDS011;58876;51.994;4.472;2022-09-09T05:51:17;3014.72;;;3014.72;;
71174;SDS011;58876;51.994;4.472;2022-09-09T05:53:53;3142.33;;;3142.33;;
71174;SDS011;58876;51.994;4.472;2022-09-09T05:56:21;3032.67;;;3032.67;;
71174;SDS011;58876;51.994;4.472;2022-09-09T05:58:50;3020.37;;;3020.37;;
71174;SDS011;58876;51.994;4.472;2022-09-09T06:01:19;2949.71;;;2949.71;;
71174;SDS011;58876;51.994;4.472;2022-09-09T06:04:06;2938.76;;;2938.76;;
71174;SDS011;58876;51.994;4.472;2022-09-09T06:06:33;2854.63;;;2854.63;;
71174;SDS011;58876;51.994;4.472;2022-09-09T06:09:05;2907.00;;;2907.00;;
71174;SDS011;58876;51.994;4.472;2022-09-09T06:11:35;2671.82;;;2671.82;;
71174;SDS011;58876;51.994;4.472;2022-09-09T06:14:04;2410.85;;;2410.85;;
71174;SDS011;58876;51.994;4.472;2022-09-09T06:16:31;2699.07;;;2699.07;;
71174;SDS011;58876;51.994;4.472;2022-09-09T06:18:58;3142.10;;;3142.10;;
71174;SDS011;58876;51.994;4.472;2022-09-09T06:21:26;3184.78;;;3184.78;;
71174;SDS011;58876;51.994;4.472;2022-09-09T06:23:53;2656.31;;;2656.31;;
71174;SDS011;58876;51.994;4.472;2022-09-09T06:26:20;2088.49;;;2088.49;;
71174;SDS011;58876;51.994;4.472;2022-09-09T06:28:48;1988.26;;;1988.26;;
71174;SDS011;58876;51.994;4.472;2022-09-09T06:31:19;1905.59;;;1905.59;;
71174;SDS011;58876;51.994;4.472;2022-09-09T06:33:51;2045.98;;;2045.98;;
71174;SDS011;58876;51.994;4.472;2022-09-09T06:36:19;1948.41;;;1948.41;;
71174;SDS011;58876;51.994;4.472;2022-09-09T06:38:49;1890.83;;;1890.83;;
71174;SDS011;58876;51.994;4.472;2022-09-09T06:41:16;1829.64;;;1829.64;;
71174;SDS011;58876;51.994;4.472;2022-09-09T06:43:43;1851.04;;;1851.04;;
71174;SDS011;58876;51.994;4.472;2022-09-09T06:48:40;2567.62;;;2567.62;;
71174;SDS011;58876;51.994;4.472;2022-09-09T06:51:08;2262.42;;;2262.42;;
71174;SDS011;58876;51.994;4.472;2022-09-09T06:53:41;1637.79;;;1637.79;;
71174;SDS011;58876;51.994;4.472;2022-09-09T06:58:35;1877.27;;;1877.27;;
71174;SDS011;58876;51.994;4.472;2022-09-09T07:01:04;1830.19;;;1830.19;;
71174;SDS011;58876;51.994;4.472;2022-09-09T07:03:30;1676.51;;;1676.51;;
71174;SDS011;58876;51.994;4.472;2022-09-09T07:05:56;1596.59;;;1596.59;;
71174;SDS011;58876;51.994;4.472;2022-09-09T07:08:22;1458.20;;;1458.20;;
71174;SDS011;58876;51.994;4.472;2022-09-09T07:10:48;1243.87;;;1243.87;;
71174;SDS011;58876;51.994;4.472;2022-09-09T07:13:14;1004.54;;;1004.54;;
71174;SDS011;58876;51.994;4.472;2022-09-09T07:15:41;1281.78;;;1281.78;;
71174;SDS011;58876;51.994;4.472;2022-09-09T07:18:07;1479.74;;;1479.74;;
71174;SDS011;58876;51.994;4.472;2022-09-09T07:20:35;1537.37;;;1537.37;;
71174;SDS011;58876;51.994;4.472;2022-09-09T07:23:00;1534.65;;;1534.65;;
71174;SDS011;58876;51.994;4.472;2022-09-09T07:25:25;1502.12;;;1502.12;;
71174;SDS011;58876;51.994;4.472;2022-09-09T07:27:54;1550.56;;;1550.56;;
71174;SDS011;58876;51.994;4.472;2022-09-09T07:30:19;1487.51;;;1487.51;;
71174;SDS011;58876;51.994;4.472;2022-09-09T07:32:47;1300.12;;;1300.12;;
71174;SDS011;58876;51.994;4.472;2022-09-09T07:35:12;1249.23;;;1249.23;;
71174;SDS011;58876;51.994;4.472;2022-09-09T07:37:38;1324.87;;;1324.87;;
71174;SDS011;58876;51.994;4.472;2022-09-09T07:40:03;1390.14;;;1390.14;;
71174;SDS011;58876;51.994;4.472;2022-09-09T07:42:30;1223.29;;;1223.29;;
71174;SDS011;58876;51.994;4.472;2022-09-09T07:44:56;1262.17;;;1262.17;;
71174;SDS011;58876;51.994;4.472;2022-09-09T07:47:21;1361.16;;;1361.16;;
71174;SDS011;58876;51.994;4.472;2022-09-09T07:49:49;1264.49;;;1264.49;;
71174;SDS011;58876;51.994;4.472;2022-09-09T07:52:15;926.93;;;926.93;;
71174;SDS011;58876;51.994;4.472;2022-09-09T07:54:41;808.48;;;808.48;;
71174;SDS011;58876;51.994;4.472;2022-09-09T07:57:07;716.89;;;716.89;;
71174;SDS011;58876;51.994;4.472;2022-09-09T07:59:33;976.52;;;976.52;;
71174;SDS011;58876;51.994;4.472;2022-09-09T08:01:58;1300.31;;;1300.31;;
71174;SDS011;58876;51.994;4.472;2022-09-09T08:04:24;1241.30;;;1241.30;;
71174;SDS011;58876;51.994;4.472;2022-09-09T08:06:55;1056.52;;;1056.52;;
71174;SDS011;58876;51.994;4.472;2022-09-09T08:09:22;987.67;;;987.67;;
71174;SDS011;58876;51.994;4.472;2022-09-09T08:11:54;722.28;;;722.28;;
71174;SDS011;58876;51.994;4.472;2022-09-09T08:14:24;520.36;;;520.36;;
71174;SDS011;58876;51.994;4.472;2022-09-09T08:16:50;521.24;;;521.24;;
71174;SDS011;58876;51.994;4.472;2022-09-09T08:19:18;463.64;;;463.64;;
71174;SDS011;58876;51.994;4.472;2022-09-09T08:21:43;396.14;;;396.14;;
71174;SDS011;58876;51.994;4.472;2022-09-09T08:24:10;346.34;;;346.34;;
71174;SDS011;58876;51.994;4.472;2022-09-09T08:26:40;316.53;;;316.53;;
71174;SDS011;58876;51.994;4.472;2022-09-09T08:29:08;335.20;;;335.20;;
71174;SDS011;58876;51.994;4.472;2022-09-09T08:31:36;319.47;;;319.47;;
71174;SDS011;58876;51.994;4.472;2022-09-09T08:34:04;396.14;;;396.14;;
71174;SDS011;58876;51.994;4.472;2022-09-09T08:36:31;376.06;;;376.06;;
71174;SDS011;58876;51.994;4.472;2022-09-09T08:38:59;452.75;;;452.75;;
71174;SDS011;58876;51.994;4.472;2022-09-09T08:47:09;617.35;;;617.35;;
71174;SDS011;58876;51.994;4.472;2022-09-09T08:52:30;461.77;;;461.77;;
71174;SDS011;58876;51.994;4.472;2022-09-09T08:55:12;620.89;;;620.89;;
71174;SDS011;58876;51.994;4.472;2022-09-09T08:57:57;933.70;;;933.70;;
71174;SDS011;58876;51.994;4.472;2022-09-09T09:04:14;759.87;;;759.87;;
71174;SDS011;58876;51.994;4.472;2022-09-09T09:07:02;498.33;;;498.33;;
71174;SDS011;58876;51.994;4.472;2022-09-09T09:09:54;438.07;;;438.07;;
71174;SDS011;58876;51.994;4.472;2022-09-09T09:12:30;498.35;;;498.35;;
71174;SDS011;58876;51.994;4.472;2022-09-09T09:15:05;497.15;;;497.15;;
71174;SDS011;58876;51.994;4.472;2022-09-09T09:17:42;447.05;;;447.05;;
71174;SDS011;58876;51.994;4.472;2022-09-09T09:20:11;579.52;;;579.52;;
71174;SDS011;58876;51.994;4.472;2022-09-09T09:22:46;756.05;;;756.05;;
71174;SDS011;58876;51.994;4.472;2022-09-09T09:25:22;732.54;;;732.54;;
71174;SDS011;58876;51.994;4.472;2022-09-09T09:30:28;516.82;;;516.82;;
71174;SDS011;58876;51.994;4.472;2022-09-09T09:33:17;390.90;;;390.90;;
71174;SDS011;58876;51.994;4.472;2022-09-09T09:35:49;223.40;;;223.40;;
71174;SDS011;58876;51.994;4.472;2022-09-09T09:38:17;189.45;;;189.45;;
71174;SDS011;58876;51.994;4.472;2022-09-09T09:40:55;203.96;;;203.96;;
71174;SDS011;58876;51.994;4.472;2022-09-09T09:43:36;275.05;;;275.05;;
71174;SDS011;58876;51.994;4.472;2022-09-09T09:46:04;256.63;;;256.63;;
71174;SDS011;58876;51.994;4.472;2022-09-09T09:48:42;248.32;;;248.32;;
71174;SDS011;58876;51.994;4.472;2022-09-09T09:51:11;192.10;;;192.10;;
71174;SDS011;58876;51.994;4.472;2022-09-09T09:53:42;192.87;;;192.87;;
71174;SDS011;58876;51.994;4.472;2022-09-09T09:56:09;220.53;;;220.53;;
71174;SDS011;58876;51.994;4.472;2022-09-09T10:01:28;227.50;;;227.50;;
71174;SDS011;58876;51.994;4.472;2022-09-09T10:04:14;235.28;;;235.28;;
71174;SDS011;58876;51.994;4.472;2022-09-09T10:06:44;332.95;;;332.95;;
71174;SDS011;58876;51.994;4.472;2022-09-09T10:18:12;943.83;;;943.83;;
71174;SDS011;58876;51.994;4.472;2022-09-09T10:23:46;1035.72;;;1035.72;;
71174;SDS011;58876;51.994;4.472;2022-09-09T10:32:38;799.13;;;799.13;;
71174;SDS011;58876;51.994;4.472;2022-09-09T10:35:21;507.97;;;507.97;;
71174;SDS011;58876;51.994;4.472;2022-09-09T10:40:59;423.88;;;423.88;;
71174;SDS011;58876;51.994;4.472;2022-09-09T10:46:14;399.82;;;399.82;;
71174;SDS011;58876;51.994;4.472;2022-09-09T10:52:08;594.64;;;594.64;;
71174;SDS011;58876;51.994;4.472;2022-09-09T10:54:56;493.17;;;493.17;;
71174;SDS011;58876;51.994;4.472;2022-09-09T10:57:47;562.42;;;562.42;;
71174;SDS011;58876;51.994;4.472;2022-09-09T11:00:17;576.88;;;576.88;;
71174;SDS011;58876;51.994;4.472;2022-09-09T11:06:13;417.52;;;417.52;;
71174;SDS011;58876;51.994;4.472;2022-09-09T11:08:48;552.58;;;552.58;;
71174;SDS011;58876;51.994;4.472;2022-09-09T11:13:47;407.59;;;407.59;;
71174;SDS011;58876;51.994;4.472;2022-09-09T11:16:30;515.82;;;515.82;;
71174;SDS011;58876;51.994;4.472;2022-09-09T11:19:05;539.86;;;539.86;;
71174;SDS011;58876;51.994;4.472;2022-09-09T11:21:52;488.03;;;488.03;;
71174;SDS011;58876;51.994;4.472;2022-09-09T11:26:58;315.51;;;315.51;;
71174;SDS011;58876;51.994;4.472;2022-09-09T11:35:21;266.72;;;266.72;;
71174;SDS011;58876;51.994;4.472;2022-09-09T11:38:19;231.37;;;231.37;;
71174;SDS011;58876;51.994;4.472;2022-09-09T11:40:56;211.02;;;211.02;;
71174;SDS011;58876;51.994;4.472;2022-09-09T11:46:11;495.65;;;495.65;;
71174;SDS011;58876;51.994;4.472;2022-09-09T11:48:43;564.14;;;564.14;;
71174;SDS011;58876;51.994;4.472;2022-09-09T11:51:12;558.09;;;558.09;;
71174;SDS011;58876;51.994;4.472;2022-09-09T11:54:00;622.52;;;622.52;;
71174;SDS011;58876;51.994;4.472;2022-09-09T11:56:29;506.93;;;506.93;;
71174;SDS011;58876;51.994;4.472;2022-09-09T12:01:29;434.06;;;434.06;;
71174;SDS011;58876;51.994;4.472;2022-09-09T12:09:45;355.78;;;355.78;;
71174;SDS011;58876;51.994;4.472;2022-09-09T12:19:39;224.39;;;224.39;;
71174;SDS011;58876;51.994;4.472;2022-09-09T12:25:33;804.33;;;804.33;;
71174;SDS011;58876;51.994;4.472;2022-09-09T12:31:07;1215.72;;;1215.72;;
71174;SDS011;58876;51.994;4.472;2022-09-09T12:33:42;1426.85;;;1426.85;;
71174;SDS011;58876;51.994;4.472;2022-09-09T12:36:15;1415.72;;;1415.72;;
71174;SDS011;58876;51.994;4.472;2022-09-09T12:38:44;1243.99;;;1243.99;;
71174;SDS011;58876;51.994;4.472;2022-09-09T12:41:24;1207.54;;;1207.54;;
71174;SDS011;58876;51.994;4.472;2022-09-09T12:44:14;1485.19;;;1485.19;;
71174;SDS011;58876;51.994;4.472;2022-09-09T12:46:39;1437.29;;;1437.29;;
71174;SDS011;58876;51.994;4.472;2022-09-09T12:49:24;1801.07;;;1801.07;;
71174;SDS011;58876;51.994;4.472;2022-09-09T12:51:53;1853.00;;;1853.00;;
71174;SDS011;58876;51.994;4.472;2022-09-09T12:54:22;1593.06;;;1593.06;;
71174;SDS011;58876;51.994;4.472;2022-09-09T12:56:48;1359.86;;;1359.86;;
71174;SDS011;58876;51.994;4.472;2022-09-09T12:59:25;1567.93;;;1567.93;;
71174;SDS011;58876;51.994;4.472;2022-09-09T13:01:59;1317.48;;;1317.48;;
71174;SDS011;58876;51.994;4.472;2022-09-09T13:04:25;1339.30;;;1339.30;;
71174;SDS011;58876;51.994;4.472;2022-09-09T13:06:51;1404.24;;;1404.24;;
71174;SDS011;58876;51.994;4.472;2022-09-09T13:09:17;1227.60;;;1227.60;;
71174;SDS011;58876;51.994;4.472;2022-09-09T13:11:49;1100.85;;;1100.85;;
71174;SDS011;58876;51.994;4.472;2022-09-09T13:14:34;959.32;;;959.32;;
71174;SDS011;58876;51.994;4.472;2022-09-09T13:17:05;701.18;;;701.18;;
71174;SDS011;58876;51.994;4.472;2022-09-09T13:19:43;800.38;;;800.38;;
71174;SDS011;58876;51.994;4.472;2022-09-09T13:22:14;822.69;;;822.69;;
71174;SDS011;58876;51.994;4.472;2022-09-09T13:24:44;667.21;;;667.21;;
71174;SDS011;58876;51.994;4.472;2022-09-09T13:27:23;723.09;;;723.09;;
71174;SDS011;58876;51.994;4.472;2022-09-09T13:29:54;736.40;;;736.40;;
71174;SDS011;58876;51.994;4.472;2022-09-09T13:32:22;777.65;;;777.65;;
71174;SDS011;58876;51.994;4.472;2022-09-09T13:34:52;801.59;;;801.59;;
71174;SDS011;58876;51.994;4.472;2022-09-09T13:37:28;904.19;;;904.19;;
71174;SDS011;58876;51.994;4.472;2022-09-09T13:40:00;788.26;;;788.26;;
71174;SDS011;58876;51.994;4.472;2022-09-09T13:42:28;782.79;;;782.79;;
71174;SDS011;58876;51.994;4.472;2022-09-09T13:44:57;822.98;;;822.98;;
71174;SDS011;58876;51.994;4.472;2022-09-09T13:47:35;1097.13;;;1097.13;;
71174;SDS011;58876;51.994;4.472;2022-09-09T13:52:55;1027.18;;;1027.18;;
71174;SDS011;58876;51.994;4.472;2022-09-09T13:55:26;1356.48;;;1356.48;;
71174;SDS011;58876;51.994;4.472;2022-09-09T13:57:57;1860.13;;;1860.13;;
71174;SDS011;58876;51.994;4.472;2022-09-09T14:00:31;1733.55;;;1733.55;;
71174;SDS011;58876;51.994;4.472;2022-09-09T14:02:59;1847.56;;;1847.56;;
71174;SDS011;58876;51.994;4.472;2022-09-09T14:05:27;2030.07;;;2030.07;;
71174;SDS011;58876;51.994;4.472;2022-09-09T14:07:53;2499.97;;;2499.97;;
71174;SDS011;58876;51.994;4.472;2022-09-09T14:10:19;2435.65;;;2435.65;;
71174;SDS011;58876;51.994;4.472;2022-09-09T14:12:51;2493.31;;;2493.31;;
71174;SDS011;58876;51.994;4.472;2022-09-09T14:15:16;2501.35;;;2501.35;;
71174;SDS011;58876;51.994;4.472;2022-09-09T14:17:42;2336.47;;;2336.47;;
71174;SDS011;58876;51.994;4.472;2022-09-09T14:20:08;1758.10;;;1758.10;;
71174;SDS011;58876;51.994;4.472;2022-09-09T14:22:35;1880.65;;;1880.65;;
71174;SDS011;58876;51.994;4.472;2022-09-09T14:25:02;1753.16;;;1753.16;;
71174;SDS011;58876;51.994;4.472;2022-09-09T14:27:28;1663.44;;;1663.44;;
71174;SDS011;58876;51.994;4.472;2022-09-09T14:29:55;1473.81;;;1473.81;;
71174;SDS011;58876;51.994;4.472;2022-09-09T14:32:20;1254.04;;;1254.04;;
71174;SDS011;58876;51.994;4.472;2022-09-09T14:34:46;1176.18;;;1176.18;;
71174;SDS011;58876;51.994;4.472;2022-09-09T14:37:15;1087.62;;;1087.62;;
71174;SDS011;58876;51.994;4.472;2022-09-09T14:39:42;905.33;;;905.33;;
71174;SDS011;58876;51.994;4.472;2022-09-09T14:42:12;663.88;;;663.88;;
71174;SDS011;58876;51.994;4.472;2022-09-09T14:44:37;634.51;;;634.51;;
71174;SDS011;58876;51.994;4.472;2022-09-09T14:47:04;776.70;;;776.70;;
71174;SDS011;58876;51.994;4.472;2022-09-09T14:49:33;864.71;;;864.71;;
71174;SDS011;58876;51.994;4.472;2022-09-09T14:52:02;593.74;;;593.74;;
71174;SDS011;58876;51.994;4.472;2022-09-09T14:54:29;315.14;;;315.14;;
71174;SDS011;58876;51.994;4.472;2022-09-09T14:56:55;420.69;;;420.69;;
71174;SDS011;58876;51.994;4.472;2022-09-09T14:59:21;473.03;;;473.03;;
71174;SDS011;58876;51.994;4.472;2022-09-09T15:01:47;421.40;;;421.40;;
71174;SDS011;58876;51.994;4.472;2022-09-09T15:04:13;514.42;;;514.42;;
71174;SDS011;58876;51.994;4.472;2022-09-09T15:06:41;709.20;;;709.20;;
71174;SDS011;58876;51.994;4.472;2022-09-09T15:09:09;539.44;;;539.44;;
71174;SDS011;58876;51.994;4.472;2022-09-09T15:11:36;733.93;;;733.93;;
71174;SDS011;58876;51.994;4.472;2022-09-09T15:14:06;783.35;;;783.35;;
71174;SDS011;58876;51.994;4.472;2022-09-09T15:16:33;1027.02;;;1027.02;;
71174;SDS011;58876;51.994;4.472;2022-09-09T15:19:00;830.38;;;830.38;;
71174;SDS011;58876;51.994;4.472;2022-09-09T15:21:28;691.00;;;691.00;;
71174;SDS011;58876;51.994;4.472;2022-09-09T15:23:57;791.59;;;791.59;;
71174;SDS011;58876;51.994;4.472;2022-09-09T15:26:22;511.77;;;511.77;;
71174;SDS011;58876;51.994;4.472;2022-09-09T15:28:48;306.58;;;306.58;;
71174;SDS011;58876;51.994;4.472;2022-09-09T15:31:20;324.78;;;324.78;;
71174;SDS011;58876;51.994;4.472;2022-09-09T15:33:53;431.87;;;431.87;;
71174;SDS011;58876;51.994;4.472;2022-09-09T15:36:29;497.56;;;497.56;;
71174;SDS011;58876;51.994;4.472;2022-09-09T15:39:00;604.44;;;604.44;;
71174;SDS011;58876;51.994;4.472;2022-09-09T15:41:28;531.83;;;531.83;;
71174;SDS011;58876;51.994;4.472;2022-09-09T15:43:56;558.97;;;558.97;;
71174;SDS011;58876;51.994;4.472;2022-09-09T15:46:27;648.91;;;648.91;;
71174;SDS011;58876;51.994;4.472;2022-09-09T15:48:56;733.42;;;733.42;;
71174;SDS011;58876;51.994;4.472;2022-09-09T15:51:36;825.12;;;825.12;;
71174;SDS011;58876;51.994;4.472;2022-09-09T15:54:04;704.20;;;704.20;;
71174;SDS011;58876;51.994;4.472;2022-09-09T15:56:30;662.45;;;662.45;;
71174;SDS011;58876;51.994;4.472;2022-09-09T15:58:58;815.07;;;815.07;;
71174;SDS011;58876;51.994;4.472;2022-09-09T16:01:25;776.97;;;776.97;;
71174;SDS011;58876;51.994;4.472;2022-09-09T16:03:53;872.09;;;872.09;;
71174;SDS011;58876;51.994;4.472;2022-09-09T16:06:22;990.87;;;990.87;;
71174;SDS011;58876;51.994;4.472;2022-09-09T16:08:49;965.56;;;965.56;;
71174;SDS011;58876;51.994;4.472;2022-09-09T16:11:21;949.93;;;949.93;;
71174;SDS011;58876;51.994;4.472;2022-09-09T16:13:50;986.98;;;986.98;;
71174;SDS011;58876;51.994;4.472;2022-09-09T16:16:17;1085.12;;;1085.12;;
71174;SDS011;58876;51.994;4.472;2022-09-09T16:18:47;900.80;;;900.80;;
71174;SDS011;58876;51.994;4.472;2022-09-09T16:21:16;851.21;;;851.21;;
71174;SDS011;58876;51.994;4.472;2022-09-09T16:23:44;921.71;;;921.71;;
71174;SDS011;58876;51.994;4.472;2022-09-09T16:26:14;1011.08;;;1011.08;;
71174;SDS011;58876;51.994;4.472;2022-09-09T16:28:41;1052.52;;;1052.52;;
71174;SDS011;58876;51.994;4.472;2022-09-09T16:31:08;969.46;;;969.46;;
71174;SDS011;58876;51.994;4.472;2022-09-09T16:33:36;823.79;;;823.79;;
71174;SDS011;58876;51.994;4.472;2022-09-09T16:36:15;718.16;;;718.16;;